Gillett, Arkansas
Current Conditions -  °F | °C
As of 9:53 PM on Saturday 22 Nov 2014 (Local Time) from KPBF Reporting Station
Broken Clouds Broken Clouds  
Wind Chill: 56°   Ceiling: 4700
Heat Index: 56°   Visibility: 10mi
Dew Point: 52°   Wind: 8mph
Humidity: 87%   Direction: 110°ESE
Pressure: 29.93"   Gusts: NA
Location:  34.12°N, 91.38°W
Report Text: KPBF 230353Z AUTO 11007KT 10SM BKN047 13/11 A2993 RMK AO2 SLP134 T01330111
Loading
Personal Weather Stations






























Interactive Weather Map New forecast layout! Learn more

10-Day Weather Forecast

Advertisements
Track Severe Weather on mobile